Caudal — EAFH — position and weather

sailwx.info

Track history (hours):
 
Tides and Currents Weather Stations Pressure Air Temp Water Temp Dewpoint Dewpoint Depression Visibility Wind Speed Wind Dir Waves Ship Positions

Caudal

Last reported at 2017-Sep-21 08:30 UTC. Time now 2017-Sep-21 09:01 UTC.
Position N 43°34' W 005°42'.

Length 24 m; draft 4.8 m.

Type: Tug. MMSI: 224263630.

Date/timePositionNaut miles runAvg speedWind from/ knotsBaromVisibWave heightAir tempDewpointWater temp
2017-Sep-21 08:30N 43°34' W 005°42'0 0.0
2017-Sep-21 08:00N 43°34' W 005°42'0 0.0
2017-Sep-19 14:50N 43°34' W 005°42'1 1.6
2017-Sep-19 14:30N 43°34' W 005°41'0 0.1
2017-Sep-19 14:00N 43°34' W 005°41'0 1.0
2017-Sep-19 13:30N 43°34' W 005°41'0 0.5
2017-Sep-19 13:00N 43°34' W 005°41'1 1.7
2017-Sep-19 12:30N 43°34' W 005°42'0 0.0
2017-Sep-19 12:00N 43°34' W 005°42'0 0.0
2017-Sep-19 11:30N 43°34' W 005°42'0 0.0
2017-Sep-19 11:00N 43°34' W 005°42'0 0.0
2017-Sep-19 10:30N 43°34' W 005°42'0 0.0
2017-Sep-19 10:00N 43°34' W 005°42'0 0.0
2017-Sep-19 09:30N 43°34' W 005°42'0 0.0
2017-Sep-19 09:00N 43°34' W 005°42'0 0.0
2017-Sep-19 08:30N 43°34' W 005°42'0 0.0
2017-Sep-19 08:00N 43°34' W 005°42'0 0.0
2017-Sep-17 19:38N 43°34' W 005°42'1 4.8
2017-Sep-17 19:27N 43°34' W 005°41'1 1.7
2017-Sep-17 19:00N 43°34' W 005°42'1 1.1
2017-Sep-17 18:24N 43°34' W 005°41'1 3.3
2017-Sep-17 17:57N 43°35' W 005°40'2 0.7
2017-Sep-17 15:01N 43°34' W 005°42'0 0.0
2017-Sep-17 15:00N 43°34' W 005°42'1 1.5
2017-Sep-17 14:29N 43°34' W 005°41'1 1.4
2017-Sep-17 14:00N 43°34' W 005°40'1 2.0
2017-Sep-17 13:30N 43°34' W 005°41'1 1.1
2017-Sep-17 13:00N 43°34' W 005°42'0 0.0
2017-Sep-15 12:19N 43°34' W 005°42'0 0.0
2017-Sep-15 11:51N 43°34' W 005°42'0 0.0
2017-Sep-15 11:23N 43°34' W 005°42'0 0.0
2017-Sep-15 10:44N 43°34' W 005°42'0 0.0
2017-Sep-15 10:30N 43°34' W 005°42'0 0.0
2017-Sep-15 09:53N 43°34' W 005°42'0 0.0
2017-Sep-15 09:27N 43°34' W 005°42'0 0.0
2017-Sep-15 09:00N 43°34' W 005°42'0 0.0
2017-Sep-15 08:31N 43°34' W 005°42'0 0.0
2017-Sep-15 07:57N 43°34' W 005°42'0 0.0
2017-Sep-14 14:43N 43°34' W 005°42'1 3.8
2017-Sep-14 14:30N 43°34' W 005°41'0 0.5
2017-Sep-14 13:54N 43°34' W 005°41'2 5.6
2017-Sep-14 13:30N 43°36' W 005°41'3 4.5
2017-Sep-14 12:57N 43°34' W 005°42'0 0.1
2017-Sep-14 12:30N 43°34' W 005°42'0 0.0
2017-Sep-14 08:23N 43°34' W 005°42'0 0.0
2017-Sep-14 08:00N 43°34' W 005°42'0 0.0
2017-Sep-13 12:47N 43°34' W 005°42'0 0.0
2017-Sep-13 12:30N 43°34' W 005°42'0 0.0
2017-Sep-13 12:00N 43°34' W 005°42'0 0.0
2017-Sep-13 11:30N 43°34' W 005°42'0 0.0
2017-Sep-13 11:00N 43°34' W 005°42'0 0.0
2017-Sep-13 10:30N 43°34' W 005°42'0 0.0
2017-Sep-13 10:00N 43°34' W 005°42'0 0.0
2017-Sep-13 09:30N 43°34' W 005°42'0 0.0
2017-Sep-13 09:00N 43°34' W 005°42'0 0.0
2017-Sep-13 08:30N 43°34' W 005°42'0 0.0
2017-Sep-13 08:00N 43°34' W 005°42'0 0.0
2017-Sep-11 16:39N 43°34' W 005°42'0 0.0
2017-Sep-11 16:30N 43°34' W 005°42'1 1.4
2017-Sep-11 16:00N 43°33' W 005°41'1 1.5
2017-Sep-11 15:30N 43°34' W 005°41'0 0.1
2017-Sep-11 13:23N 43°34' W 005°41'1 2.4
2017-Sep-11 12:57N 43°34' W 005°42'0 0.0
2017-Sep-11 11:50N 43°34' W 005°42'0 0.0
2017-Sep-11 11:30N 43°34' W 005°42'0 0.0
2017-Sep-11 11:00N 43°34' W 005°42'0 0.0
2017-Sep-11 10:30N 43°34' W 005°42'0 0.0
2017-Sep-11 10:00N 43°34' W 005°42'0 0.0
2017-Sep-11 09:30N 43°34' W 005°42'0 0.0
2017-Sep-11 09:00N 43°34' W 005°42'  
Track history (hours):
 
Tides and Currents Weather Stations Pressure Air Temp Water Temp Dewpoint Dewpoint Depression Visibility Wind Speed Wind Dir Waves Ship Positions

Caudal

Last reported at 2017-Sep-21 08:30 UTC. Time now 2017-Sep-21 09:01 UTC.
Position N 43°34' W 005°42'.

Length 24 m; draft 4.8 m.

Type: Tug. MMSI: 224263630.

Date/timePositionNaut miles runAvg speedWind from/ knotsBaromVisibWave heightAir tempDewpointWater temp
2017-Sep-21 08:30N 43°34' W 005°42'0 0.0
2017-Sep-21 08:00N 43°34' W 005°42'0 0.0
2017-Sep-19 14:50N 43°34' W 005°42'1 1.6
2017-Sep-19 14:30N 43°34' W 005°41'0 0.1
2017-Sep-19 14:00N 43°34' W 005°41'0 1.0
2017-Sep-19 13:30N 43°34' W 005°41'0 0.5
2017-Sep-19 13:00N 43°34' W 005°41'1 1.7
2017-Sep-19 12:30N 43°34' W 005°42'0 0.0
2017-Sep-19 12:00N 43°34' W 005°42'0 0.0
2017-Sep-19 11:30N 43°34' W 005°42'0 0.0
2017-Sep-19 11:00N 43°34' W 005°42'0 0.0
2017-Sep-19 10:30N 43°34' W 005°42'0 0.0
2017-Sep-19 10:00N 43°34' W 005°42'0 0.0
2017-Sep-19 09:30N 43°34' W 005°42'0 0.0
2017-Sep-19 09:00N 43°34' W 005°42'0 0.0
2017-Sep-19 08:30N 43°34' W 005°42'0 0.0
2017-Sep-19 08:00N 43°34' W 005°42'0 0.0
2017-Sep-17 19:38N 43°34' W 005°42'1 4.8
2017-Sep-17 19:27N 43°34' W 005°41'1 1.7
2017-Sep-17 19:00N 43°34' W 005°42'1 1.1
2017-Sep-17 18:24N 43°34' W 005°41'1 3.3
2017-Sep-17 17:57N 43°35' W 005°40'2 0.7
2017-Sep-17 15:01N 43°34' W 005°42'0 0.0
2017-Sep-17 15:00N 43°34' W 005°42'1 1.5
2017-Sep-17 14:29N 43°34' W 005°41'1 1.4
2017-Sep-17 14:00N 43°34' W 005°40'1 2.0
2017-Sep-17 13:30N 43°34' W 005°41'1 1.1
2017-Sep-17 13:00N 43°34' W 005°42'0 0.0
2017-Sep-15 12:19N 43°34' W 005°42'0 0.0
2017-Sep-15 11:51N 43°34' W 005°42'0 0.0
2017-Sep-15 11:23N 43°34' W 005°42'0 0.0
2017-Sep-15 10:44N 43°34' W 005°42'0 0.0
2017-Sep-15 10:30N 43°34' W 005°42'0 0.0
2017-Sep-15 09:53N 43°34' W 005°42'0 0.0
2017-Sep-15 09:27N 43°34' W 005°42'0 0.0
2017-Sep-15 09:00N 43°34' W 005°42'0 0.0
2017-Sep-15 08:31N 43°34' W 005°42'0 0.0
2017-Sep-15 07:57N 43°34' W 005°42'0 0.0
2017-Sep-14 14:43N 43°34' W 005°42'1 3.8
2017-Sep-14 14:30N 43°34' W 005°41'0 0.5
2017-Sep-14 13:54N 43°34' W 005°41'2 5.6
2017-Sep-14 13:30N 43°36' W 005°41'3 4.5
2017-Sep-14 12:57N 43°34' W 005°42'0 0.1
2017-Sep-14 12:30N 43°34' W 005°42'0 0.0
2017-Sep-14 08:23N 43°34' W 005°42'0 0.0
2017-Sep-14 08:00N 43°34' W 005°42'0 0.0
2017-Sep-13 12:47N 43°34' W 005°42'0 0.0
2017-Sep-13 12:30N 43°34' W 005°42'0 0.0
2017-Sep-13 12:00N 43°34' W 005°42'0 0.0
2017-Sep-13 11:30N 43°34' W 005°42'0 0.0
2017-Sep-13 11:00N 43°34' W 005°42'0 0.0
2017-Sep-13 10:30N 43°34' W 005°42'0 0.0
2017-Sep-13 10:00N 43°34' W 005°42'0 0.0
2017-Sep-13 09:30N 43°34' W 005°42'0 0.0
2017-Sep-13 09:00N 43°34' W 005°42'0 0.0
2017-Sep-13 08:30N 43°34' W 005°42'0 0.0
2017-Sep-13 08:00N 43°34' W 005°42'0 0.0
2017-Sep-11 16:39N 43°34' W 005°42'0 0.0
2017-Sep-11 16:30N 43°34' W 005°42'1 1.4
2017-Sep-11 16:00N 43°33' W 005°41'1 1.5
2017-Sep-11 15:30N 43°34' W 005°41'0 0.1
2017-Sep-11 13:23N 43°34' W 005°41'1 2.4
2017-Sep-11 12:57N 43°34' W 005°42'0 0.0
2017-Sep-11 11:50N 43°34' W 005°42'0 0.0
2017-Sep-11 11:30N 43°34' W 005°42'0 0.0
2017-Sep-11 11:00N 43°34' W 005°42'0 0.0
2017-Sep-11 10:30N 43°34' W 005°42'0 0.0
2017-Sep-11 10:00N 43°34' W 005°42'0 0.0
2017-Sep-11 09:30N 43°34' W 005°42'0 0.0
2017-Sep-11 09:00N 43°34' W 005°42'  

Dump ship's entire track history